Time;durP1;ratioP1;P1;durP2;ratioP2;P2;SDS_P1;SDS_P2;PMS_P1;PMS_P2;Temp;Humidity;BMP_temperature;BMP_pressure;BME280_temperature;BME280_humidity;BME280_pressure;Samples;Min_cycle;Max_cycle;Signal;HPM_P1;HPM_P2
2023/05/01 00:02:21;;;;;;;;;;;;;;;11.54;81.81;96451.47;5037331;28;22089;-67
2023/05/01 00:04:46;;;;;;;;;;;;;;;11.53;82.94;96447.16;5040623;28;20054;-68
2023/05/01 00:07:12;;;;;;;;;;;;;;;11.75;81.81;96443.41;5038777;28;19917;-70
2023/05/01 00:09:37;;;;;;;;;;;;;;;11.74;81.85;96447.34;5041996;28;19916;-68
2023/05/01 00:12:02;;;;;;;;;;;;;;;11.66;82.64;96443.72;5041720;28;19917;-72
2023/05/01 00:14:28;;;;;;;;;;;;;;;11.61;82.69;96440.56;5039228;28;19917;-69
2023/05/01 00:16:53;;;;;;;;;;;;;;;11.51;82.63;96444.03;5046482;28;20011;-68
2023/05/01 00:19:18;;;;;;;;;;;;;;;11.42;83.05;96441.59;5030365;28;19925;-70
2023/05/01 00:21:45;;;;;;;;;;;;;;;11.34;83.45;96439.94;5054617;28;20004;-68
2023/05/01 00:24:10;;;;;;;;;;;;;;;11.16;85.46;96439.75;5041409;28;20492;-68
2023/05/01 00:26:36;;;;;;;;;;;;;;;11.14;85.89;96433.88;5041935;28;19928;-68
2023/05/01 00:29:01;;;;;;;;;;;;;;;11.17;84.63;96436.66;5040847;28;20360;-68
2023/05/01 00:31:27;;;;;;;;;;;;;;;11.24;84.29;96433.97;5017839;28;20544;-70
2023/05/01 00:33:52;;;;;;;;;;;;;;;11.36;84.11;96429.38;5041813;28;19927;-69
2023/05/01 00:36:18;;;;;;;;;;;;;;;11.35;83.83;96431.34;5035478;28;20361;-70
2023/05/01 00:38:45;;;;;;;;;;;;;;;11.23;84.76;96434.34;5042086;28;20051;-69
2023/05/01 00:41:10;;;;;;;;;;;;;;;11.09;85.58;96427.56;5036960;28;20426;-67
2023/05/01 00:43:35;;;;;;;;;;;;;;;11.09;85.44;96426.75;5041669;28;20003;-69
2023/05/01 00:46:01;;;;;;;;;;;;;;;11.08;85.47;96425.22;5041550;28;19917;-68
2023/05/01 00:48:26;;;;;;;;;;;;;;;11.10;86.11;96420.13;5051593;28;19917;-69
2023/05/01 00:50:53;;;;;;;;;;;;;;;11.14;85.84;96426.44;5050121;28;19916;-68
2023/05/01 00:53:19;;;;;;;;;;;;;;;11.17;86.04;96419.44;5002124;28;19968;-68
2023/05/01 00:55:44;;;;;;;;;;;;;;;11.17;85.84;96420.19;5040358;28;19920;-68
2023/05/01 00:58:11;;;;;;;;;;;;;;;11.10;85.61;96422.88;5036063;28;19932;-69
2023/05/01 01:00:36;;;;;;;;;;;;;;;11.08;85.89;96417.75;5040763;28;19943;-68
2023/05/01 01:03:03;;;;;;;;;;;;;;;11.22;86.05;96413.59;5040810;28;19916;-69
2023/05/01 01:05:29;;;;;;;;;;;;;;;11.29;85.50;96413.66;5019073;28;19970;-68
2023/05/01 01:07:57;;;;;;;;;;;;;;;11.37;85.26;96418.03;5038929;28;19921;-69
2023/05/01 01:10:39;;;;;;;;;;;;;;;11.40;84.44;96411.78;5036563;28;19991;-69
2023/05/01 01:13:13;;;;;;;;;;;;;;;11.29;85.43;96405.44;5034698;28;20011;-66
2023/05/01 01:15:43;;;;;;;;;;;;;;;11.12;85.61;96406.06;5042075;28;19964;-68
2023/05/01 01:18:13;;;;;;;;;;;;;;;11.09;86.83;96400.16;5040261;28;20293;-69
2023/05/01 01:20:38;;;;;;;;;;;;;;;11.07;87.06;96405.25;5044077;28;19916;-68
2023/05/01 01:23:20;;;;;;;;;;;;;;;11.05;86.53;96404.81;5042134;28;20351;-72
2023/05/01 01:26:06;;;;;;;;;;;;;;;11.13;86.89;96404.88;5042239;28;19956;-67
2023/05/01 01:28:51;;;;;;;;;;;;;;;11.20;87.45;96405.75;5042390;28;19917;-68
2023/05/01 01:31:19;;;;;;;;;;;;;;;11.20;86.87;96402.19;5041592;28;19960;-66
2023/05/01 01:33:51;;;;;;;;;;;;;;;11.26;88.83;96408.94;5045466;28;19960;-67
2023/05/01 01:36:23;;;;;;;;;;;;;;;11.36;89.77;96401.94;5039703;28;20307;-67
2023/05/01 01:38:57;;;;;;;;;;;;;;;11.36;92.14;96397.28;5044389;28;19920;-68
2023/05/01 01:41:25;;;;;;;;;;;;;;;11.42;93.55;96405.94;5040045;28;20498;-68
2023/05/01 01:43:57;;;;;;;;;;;;;;;11.38;95.34;96405.91;5044655;28;19921;-68
2023/05/01 01:46:23;;;;;;;;;;;;;;;11.38;96.89;96405.91;5020480;28;20824;-68
2023/05/01 01:48:50;;;;;;;;;;;;;;;11.46;96.13;96412.22;5049681;28;20012;-67
2023/05/01 01:51:18;;;;;;;;;;;;;;;11.50;94.84;96404.81;5039501;28;20011;-68
2023/05/01 01:53:45;;;;;;;;;;;;;;;11.52;94.69;96404.44;5044257;28;19917;-67
2023/05/01 01:56:11;;;;;;;;;;;;;;;11.42;96.58;96403.97;5038919;28;19917;-67
2023/05/01 01:58:37;;;;;;;;;;;;;;;11.32;99.45;96409.38;5043527;28;19924;-69
2023/05/01 02:01:05;;;;;;;;;;;;;;;11.14;100.00;96404.50;5045859;28;19916;-70
2023/05/01 02:03:31;;;;;;;;;;;;;;;11.04;100.00;96399.72;5044333;28;20015;-67
2023/05/01 02:05:57;;;;;;;;;;;;;;;11.10;100.00;96398.22;5043559;28;19916;-67
2023/05/01 02:08:24;;;;;;;;;;;;;;;11.24;100.00;96406.56;5038886;28;20436;-69
2023/05/01 02:10:50;;;;;;;;;;;;;;;11.23;100.00;96396.75;5043498;28;19917;-68
2023/05/01 02:13:17;;;;;;;;;;;;;;;11.23;100.00;96393.22;5038767;28;19928;-68
2023/05/01 02:15:43;;;;;;;;;;;;;;;11.22;100.00;96386.97;5043715;28;20373;-68
2023/05/01 02:18:09;;;;;;;;;;;;;;;11.24;100.00;96394.81;5019281;28;20393;-69
2023/05/01 02:20:36;;;;;;;;;;;;;;;11.31;100.00;96396.81;5044038;28;20007;-69
2023/05/01 02:23:02;;;;;;;;;;;;;;;11.34;100.00;96391.34;5025147;28;20216;-69
2023/05/01 02:25:29;;;;;;;;;;;;;;;11.39;100.00;96396.50;5039549;28;19917;-68
2023/05/01 02:27:56;;;;;;;;;;;;;;;11.50;100.00;96398.56;5042692;28;19984;-67
2023/05/01 02:30:21;;;;;;;;;;;;;;;11.51;100.00;96392.69;5037967;28;20373;-69
2023/05/01 02:32:47;;;;;;;;;;;;;;;11.50;100.00;96391.09;5043235;28;20015;-68
2023/05/01 02:35:12;;;;;;;;;;;;;;;11.42;100.00;96403.97;5037677;28;19917;-67
2023/05/01 02:37:38;;;;;;;;;;;;;;;11.36;100.00;96393.72;5043444;28;19921;-67
2023/05/01 02:40:04;;;;;;;;;;;;;;;11.35;100.00;96400.41;5039907;28;20353;-68
2023/05/01 02:42:31;;;;;;;;;;;;;;;11.28;100.00;96401.13;5042844;28;20353;-67
2023/05/01 02:44:58;;;;;;;;;;;;;;;11.24;100.00;96397.56;5042570;28;19920;-68
2023/05/01 02:47:26;;;;;;;;;;;;;;;11.12;100.00;96389.63;5038134;28;20202;-67
2023/05/01 02:49:51;;;;;;;;;;;;;;;10.96;100.00;96390.63;5040804;28;20254;-68
2023/05/01 02:52:17;;;;;;;;;;;;;;;10.88;100.00;96389.00;5037650;28;19917;-69
2023/05/01 02:54:44;;;;;;;;;;;;;;;10.90;100.00;96397.63;5042328;28;20019;-68
2023/05/01 02:57:09;;;;;;;;;;;;;;;10.92;100.00;96389.81;5042428;28;19924;-69
2023/05/01 02:59:35;;;;;;;;;;;;;;;10.94;100.00;96390.22;5053340;28;19920;-69
2023/05/01 03:02:00;;;;;;;;;;;;;;;10.86;100.00;96386.63;5048102;28;19921;-69
2023/05/01 03:04:26;;;;;;;;;;;;;;;10.86;100.00;96383.13;5041539;28;19924;-68
2023/05/01 03:06:52;;;;;;;;;;;;;;;10.79;100.00;96386.56;5044134;28;19917;-68
2023/05/01 03:09:18;;;;;;;;;;;;;;;10.70;100.00;96378.63;5036385;28;19917;-69
2023/05/01 03:11:43;;;;;;;;;;;;;;;10.59;100.00;96377.75;5043081;28;19978;-67
2023/05/01 03:14:10;;;;;;;;;;;;;;;10.47;100.00;96375.25;5038335;28;19917;-67
2023/05/01 03:16:35;;;;;;;;;;;;;;;10.41;100.00;96374.78;5042567;28;20388;-68
2023/05/01 03:19:00;;;;;;;;;;;;;;;10.32;100.00;96385.25;5042500;28;19925;-68
2023/05/01 03:21:26;;;;;;;;;;;;;;;10.37;100.00;96384.13;5018756;28;19920;-67
2023/05/01 03:23:53;;;;;;;;;;;;;;;10.35;100.00;96380.97;5040060;28;20139;-68
2023/05/01 03:26:18;;;;;;;;;;;;;;;10.46;100.00;96374.47;5018987;28;20341;-69
2023/05/01 03:28:44;;;;;;;;;;;;;;;10.36;100.00;96369.66;5042448;28;19924;-69
2023/05/01 03:31:09;;;;;;;;;;;;;;;10.27;100.00;96377.34;5041532;28;19998;-68
2023/05/01 03:33:34;;;;;;;;;;;;;;;10.22;100.00;96377.66;5044457;28;19923;-68
2023/05/01 03:36:01;;;;;;;;;;;;;;;10.12;100.00;96379.09;5043042;28;19917;-67
2023/05/01 03:38:27;;;;;;;;;;;;;;;10.11;100.00;96375.56;5037143;28;19924;-68
2023/05/01 03:40:52;;;;;;;;;;;;;;;10.07;100.00;96374.75;5024128;28;20019;-69
2023/05/01 03:43:17;;;;;;;;;;;;;;;10.16;100.00;96376.41;5036624;28;20024;-69
2023/05/01 03:45:43;;;;;;;;;;;;;;;10.22;100.00;96372.97;5023950;28;19917;-69
2023/05/01 03:48:08;;;;;;;;;;;;;;;10.17;100.00;96369.78;5037809;28;19969;-69
2023/05/01 03:50:33;;;;;;;;;;;;;;;10.23;100.00;96365.56;5024001;28;19943;-68
2023/05/01 03:52:58;;;;;;;;;;;;;;;10.25;100.00;96369.50;5023549;28;19928;-68
2023/05/01 03:55:24;;;;;;;;;;;;;;;10.26;100.00;96370.28;5037412;28;19917;-68
2023/05/01 03:57:49;;;;;;;;;;;;;;;10.30;100.00;96371.91;5045307;28;20293;-68
2023/05/01 04:00:14;;;;;;;;;;;;;;;10.39;100.00;96368.09;5054182;28;19917;-68
2023/05/01 04:02:40;;;;;;;;;;;;;;;10.39;100.00;96370.84;5052309;28;19944;-68
2023/05/01 04:05:05;;;;;;;;;;;;;;;10.32;100.00;96371.56;5038185;28;20396;-68
2023/05/01 04:07:30;;;;;;;;;;;;;;;10.16;100.00;96374.47;5042233;28;19986;-68
2023/05/01 04:09:56;;;;;;;;;;;;;;;10.18;100.00;96377.59;5042345;28;19917;-69
2023/05/01 04:12:23;;;;;;;;;;;;;;;10.23;100.00;96376.50;5019630;28;20160;-68
2023/05/01 04:14:48;;;;;;;;;;;;;;;10.33;100.00;96379.41;5042070;28;20531;-67
2023/05/01 04:17:14;;;;;;;;;;;;;;;10.34;100.00;96377.44;5034611;28;19921;-71
2023/05/01 04:19:40;;;;;;;;;;;;;;;10.33;100.00;96379.41;5040496;28;19964;-67
2023/05/01 04:22:05;;;;;;;;;;;;;;;10.35;100.00;96376.28;5017360;28;19921;-67
2023/05/01 04:24:31;;;;;;;;;;;;;;;10.40;100.00;96372.44;5042763;28;20390;-68
2023/05/01 04:26:57;;;;;;;;;;;;;;;10.40;100.00;96370.47;5056349;28;19916;-68
2023/05/01 04:29:22;;;;;;;;;;;;;;;10.39;100.00;96371.66;5044321;28;20063;-68
2023/05/01 04:31:48;;;;;;;;;;;;;;;10.41;100.00;96374.00;5041152;28;20019;-67
2023/05/01 04:34:13;;;;;;;;;;;;;;;10.50;100.00;96374.50;5035921;28;19923;-69
2023/05/01 04:36:39;;;;;;;;;;;;;;;10.51;100.00;96382.34;5040175;28;19923;-68
2023/05/01 04:39:04;;;;;;;;;;;;;;;10.48;100.00;96382.31;5036885;28;20344;-71
2023/05/01 04:41:30;;;;;;;;;;;;;;;10.47;100.00;96378.00;5041455;28;19921;-67
2023/05/01 04:43:55;;;;;;;;;;;;;;;10.39;100.00;96385.34;5041152;28;20374;-68
2023/05/01 04:46:20;;;;;;;;;;;;;;;10.39;100.00;96385.34;5036351;28;19921;-67
2023/05/01 04:48:46;;;;;;;;;;;;;;;10.39;100.00;96388.06;5041382;28;19917;-69
2023/05/01 04:51:11;;;;;;;;;;;;;;;10.40;100.00;96386.91;5038593;28;19916;-69
2023/05/01 04:53:36;;;;;;;;;;;;;;;10.45;100.00;96389.31;5045572;28;19974;-69
2023/05/01 04:56:02;;;;;;;;;;;;;;;10.44;100.00;96395.16;5045832;28;19923;-70
2023/05/01 04:58:27;;;;;;;;;;;;;;;10.48;100.00;96398.75;5040997;28;19928;-69
2023/05/01 05:00:52;;;;;;;;;;;;;;;10.46;100.00;96395.56;5045216;28;20003;-67
2023/05/01 05:03:18;;;;;;;;;;;;;;;10.41;100.00;96402.19;5040085;28;19971;-68
2023/05/01 05:05:44;;;;;;;;;;;;;;;10.45;100.00;96397.53;5044533;28;20413;-68
2023/05/01 05:08:09;;;;;;;;;;;;;;;10.44;100.00;96403.38;5040580;28;20369;-68
2023/05/01 05:10:35;;;;;;;;;;;;;;;10.42;100.00;96402.94;5044423;28;19920;-68
2023/05/01 05:13:00;;;;;;;;;;;;;;;10.42;100.00;96403.72;5026683;28;19967;-68
2023/05/01 05:15:25;;;;;;;;;;;;;;;10.50;100.00;96407.38;5039395;28;19916;-68
2023/05/01 05:17:51;;;;;;;;;;;;;;;10.51;100.00;96406.19;5043771;28;19928;-68
2023/05/01 05:20:16;;;;;;;;;;;;;;;10.49;100.00;96414.00;5040902;28;19917;-68
2023/05/01 05:22:41;;;;;;;;;;;;;;;10.61;100.00;96404.75;5044202;28;19924;-68
2023/05/01 05:25:07;;;;;;;;;;;;;;;10.64;100.00;96406.72;5038959;28;19932;-67
2023/05/01 05:27:36;;;;;;;;;;;;;;;10.57;100.00;96407.44;5043502;28;19920;-69
2023/05/01 05:30:05;;;;;;;;;;;;;;;10.65;100.00;96405.56;5044184;28;19917;-71
2023/05/01 05:32:30;;;;;;;;;;;;;;;10.59;100.00;96415.28;5044739;28;19917;-67
2023/05/01 05:34:55;;;;;;;;;;;;;;;10.58;100.00;96417.22;5044775;28;19994;-67
2023/05/01 05:37:21;;;;;;;;;;;;;;;10.62;100.00;96409.84;5046319;28;19924;-68
2023/05/01 05:39:46;;;;;;;;;;;;;;;10.72;100.00;96419.34;5054828;28;19923;-68
2023/05/01 05:42:11;;;;;;;;;;;;;;;10.68;100.00;96419.31;5044995;28;20399;-67
2023/05/01 05:44:38;;;;;;;;;;;;;;;10.65;100.00;96424.75;5047866;28;19917;-69
2023/05/01 05:47:03;;;;;;;;;;;;;;;10.63;100.00;96419.63;5040773;28;19931;-71
2023/05/01 05:49:29;;;;;;;;;;;;;;;10.70;100.00;96416.97;5042686;28;20028;-67
2023/05/01 05:51:54;;;;;;;;;;;;;;;10.84;100.00;96413.63;5043663;28;20305;-67
2023/05/01 05:54:20;;;;;;;;;;;;;;;10.88;100.00;96410.91;5038476;28;19970;-68
2023/05/01 05:56:45;;;;;;;;;;;;;;;10.84;100.00;96416.34;5043854;28;19920;-70
2023/05/01 05:59:10;;;;;;;;;;;;;;;10.95;100.00;96413.72;5038496;28;19967;-67
2023/05/01 06:01:36;;;;;;;;;;;;;;;10.98;100.00;96414.91;5043517;28;19927;-68
2023/05/01 06:04:02;;;;;;;;;;;;;;;10.81;100.00;96413.56;5042905;28;19941;-70
2023/05/01 06:06:27;;;;;;;;;;;;;;;10.73;100.00;96422.88;5040051;28;20003;-67
2023/05/01 06:08:52;;;;;;;;;;;;;;;10.70;100.00;96418.94;5043788;28;19924;-68
2023/05/01 06:11:18;;;;;;;;;;;;;;;10.67;100.00;96412.25;5038626;28;19917;-69
2023/05/01 06:13:43;;;;;;;;;;;;;;;10.64;100.00;96421.22;5043118;28;20401;-67
2023/05/01 06:16:09;;;;;;;;;;;;;;;10.77;100.00;96412.72;5037849;28;19962;-68
2023/05/01 06:18:34;;;;;;;;;;;;;;;11.00;100.00;96416.13;5025138;28;19920;-69
2023/05/01 06:20:59;;;;;;;;;;;;;;;11.06;100.00;96414.63;5043274;28;19921;-68
2023/05/01 06:23:25;;;;;;;;;;;;;;;11.09;100.00;96422.09;5038103;28;20432;-67
2023/05/01 06:25:50;;;;;;;;;;;;;;;11.17;100.00;96420.19;5043348;28;19921;-66
2023/05/01 06:28:15;;;;;;;;;;;;;;;11.12;100.00;96423.28;5039432;28;19964;-67
2023/05/01 06:30:41;;;;;;;;;;;;;;;11.03;100.00;96415.38;5042997;28;19924;-67
2023/05/01 06:33:06;;;;;;;;;;;;;;;11.16;100.00;96424.09;5039214;28;20286;-67
2023/05/01 06:35:31;;;;;;;;;;;;;;;11.15;100.00;96421.75;5043493;28;19955;-68
2023/05/01 06:37:56;;;;;;;;;;;;;;;11.08;100.00;96412.28;5043018;28;20019;-67
2023/05/01 06:40:22;;;;;;;;;;;;;;;11.16;100.00;96415.09;5038418;28;20364;-68
2023/05/01 06:42:47;;;;;;;;;;;;;;;11.10;100.00;96422.88;5043467;28;19970;-69
2023/05/01 06:45:12;;;;;;;;;;;;;;;11.09;100.00;96419.34;5038009;28;19916;-68
2023/05/01 06:47:38;;;;;;;;;;;;;;;11.26;100.00;96426.16;5042736;28;20364;-68
2023/05/01 06:50:03;;;;;;;;;;;;;;;11.09;100.00;96422.09;5039738;28;19928;-71
2023/05/01 06:52:29;;;;;;;;;;;;;;;10.88;100.00;96428.13;5042075;28;20435;-69
2023/05/01 06:54:54;;;;;;;;;;;;;;;10.87;100.00;96426.53;5042987;28;19916;-68
2023/05/01 06:57:19;;;;;;;;;;;;;;;10.93;100.00;96431.69;5038472;28;19916;-69
2023/05/01 06:59:45;;;;;;;;;;;;;;;10.73;100.00;96439.31;5042699;28;19952;-69
2023/05/01 07:02:10;;;;;;;;;;;;;;;10.70;100.00;96440.84;5037803;28;20007;-68
2023/05/01 07:04:36;;;;;;;;;;;;;;;10.95;100.00;96432.91;5042968;28;19976;-69
2023/05/01 07:07:02;;;;;;;;;;;;;;;11.01;100.00;96444.31;5041820;28;19921;-71
2023/05/01 07:09:27;;;;;;;;;;;;;;;11.16;100.00;96445.25;5039227;28;20500;-68
2023/05/01 07:11:52;;;;;;;;;;;;;;;11.19;100.00;96444.50;5042808;28;19932;-69
2023/05/01 07:14:17;;;;;;;;;;;;;;;11.38;100.00;96447.03;5036919;28;19924;-69
2023/05/01 07:16:43;;;;;;;;;;;;;;;11.27;100.00;96446.94;5042174;28;19970;-67
2023/05/01 07:19:08;;;;;;;;;;;;;;;11.12;100.00;96447.94;5037288;28;19928;-69
2023/05/01 07:21:33;;;;;;;;;;;;;;;11.20;100.00;96448.81;5042401;28;20386;-69
2023/05/01 07:23:59;;;;;;;;;;;;;;;11.12;100.00;96445.22;5042427;28;20011;-70
2023/05/01 07:26:27;;;;;;;;;;;;;;;11.09;100.00;96444.03;5037293;28;19920;-69
2023/05/01 07:28:52;;;;;;;;;;;;;;;11.25;100.00;96441.03;5041358;28;20312;-68
2023/05/01 07:31:18;;;;;;;;;;;;;;;11.30;100.00;96439.91;5037356;28;19920;-68
2023/05/01 07:33:43;;;;;;;;;;;;;;;11.58;100.00;96452.31;5042105;28;19928;-69
2023/05/01 07:36:09;;;;;;;;;;;;;;;11.61;100.00;96448.78;5039073;28;19917;-68
2023/05/01 07:38:34;;;;;;;;;;;;;;;11.60;100.00;96441.75;5049439;28;20354;-67
2023/05/01 07:40:59;;;;;;;;;;;;;;;11.90;100.00;96447.06;5042734;28;20012;-69
2023/05/01 07:43:24;;;;;;;;;;;;;;;12.09;100.00;96442.50;5037662;28;19920;-67
2023/05/01 07:45:57;;;;;;;;;;;;;;;12.16;100.00;96448.81;5040139;28;19947;-69
2023/05/01 07:48:22;;;;;;;;;;;;;;;12.14;100.00;96447.66;5036782;28;20437;-69
2023/05/01 07:50:47;;;;;;;;;;;;;;;12.13;100.00;96448.81;5041965;28;19923;-66
2023/05/01 07:53:12;;;;;;;;;;;;;;;12.21;100.00;96445.72;5037082;28;19917;-66
2023/05/01 07:55:38;;;;;;;;;;;;;;;12.38;100.00;96449.72;5040975;28;19921;-68
2023/05/01 07:58:03;;;;;;;;;;;;;;;12.18;100.00;96453.94;5036922;28;19960;-72
2023/05/01 08:00:29;;;;;;;;;;;;;;;11.97;100.00;96452.59;5041692;28;19917;-68
2023/05/01 08:02:54;;;;;;;;;;;;;;;12.00;100.00;96459.31;5023778;28;19924;-69
2023/05/01 08:05:20;;;;;;;;;;;;;;;12.16;100.00;96459.81;5045808;28;19925;-68
2023/05/01 08:07:45;;;;;;;;;;;;;;;12.28;100.00;96457.91;5045740;28;20022;-67
2023/05/01 08:10:10;;;;;;;;;;;;;;;12.16;100.00;96454.31;5036757;28;19970;-68
2023/05/01 08:12:36;;;;;;;;;;;;;;;12.04;100.00;96458.16;5041498;28;19943;-67
2023/05/01 08:15:01;;;;;;;;;;;;;;;12.18;100.00;96464.91;5040492;28;20415;-68
2023/05/01 08:17:26;;;;;;;;;;;;;;;12.43;100.00;96470.56;5036410;28;19920;-68
2023/05/01 08:19:55;;;;;;;;;;;;;;;12.56;100.00;96465.50;5041774;28;19928;-70
2023/05/01 08:22:20;;;;;;;;;;;;;;;12.86;100.00;96467.22;5042380;28;19917;-68
2023/05/01 08:24:45;;;;;;;;;;;;;;;12.95;100.00;96462.16;5046771;28;19920;-67
2023/05/01 08:27:11;;;;;;;;;;;;;;;12.87;100.00;96466.81;5043810;28;19916;-67
2023/05/01 08:29:36;;;;;;;;;;;;;;;12.52;100.00;96470.22;5047131;28;19921;-67
2023/05/01 08:32:01;;;;;;;;;;;;;;;12.59;100.00;96475.75;5042923;28;19925;-69
2023/05/01 08:34:27;;;;;;;;;;;;;;;12.79;100.00;96476.22;5019485;28;20401;-67
2023/05/01 08:36:52;;;;;;;;;;;;;;;12.61;100.00;96471.41;5041341;28;19921;-67
2023/05/01 08:39:17;;;;;;;;;;;;;;;12.52;100.00;96472.97;5036273;28;19925;-69
2023/05/01 08:41:44;;;;;;;;;;;;;;;12.55;100.00;96475.72;5041501;28;19927;-68
2023/05/01 08:44:10;;;;;;;;;;;;;;;12.19;100.00;96470.03;5036670;28;19917;-69
2023/05/01 08:46:56;;;;;;;;;;;;;;;12.22;100.00;96471.22;5040066;28;20007;-68
2023/05/01 08:49:22;;;;;;;;;;;;;;;12.59;100.00;96478.50;5036120;28;22426;-68
2023/05/01 08:51:49;;;;;;;;;;;;;;;12.81;100.00;96480.13;5041011;28;19917;-68
2023/05/01 08:54:15;;;;;;;;;;;;;;;13.28;100.00;96482.25;5036159;28;20012;-68
2023/05/01 08:56:42;;;;;;;;;;;;;;;13.09;100.00;96473.19;5040571;28;20373;-68
2023/05/01 08:59:08;;;;;;;;;;;;;;;13.18;100.00;96483.78;5036407;28;19927;-68
2023/05/01 09:01:34;;;;;;;;;;;;;;;13.32;100.00;96478.34;5041162;28;19932;-68
2023/05/01 09:04:02;;;;;;;;;;;;;;;13.42;100.00;96489.78;5041891;28;19921;-68
2023/05/01 09:06:28;;;;;;;;;;;;;;;13.67;100.00;96482.34;5038402;28;19916;-68
2023/05/01 09:08:53;;;;;;;;;;;;;;;13.85;100.00;96487.84;5041447;28;19982;-69
2023/05/01 09:11:20;;;;;;;;;;;;;;;13.67;100.00;96487.06;5036760;28;20011;-70
2023/05/01 09:13:45;;;;;;;;;;;;;;;14.00;100.00;96487.84;5041066;28;19964;-68
2023/05/01 09:16:11;;;;;;;;;;;;;;;13.94;100.00;96485.50;5018064;28;19959;-68
2023/05/01 09:18:37;;;;;;;;;;;;;;;14.02;100.00;96485.50;5040780;28;19925;-68
2023/05/01 09:21:02;;;;;;;;;;;;;;;14.14;100.00;96485.88;5038751;28;19916;-69
2023/05/01 09:23:27;;;;;;;;;;;;;;;14.15;100.00;96489.41;5037481;28;20384;-68
2023/05/01 09:25:54;;;;;;;;;;;;;;;14.43;100.00;96487.81;5040970;28;19962;-68
2023/05/01 09:28:38;;;;;;;;;;;;;;;13.90;100.00;96487.47;5035550;28;20008;-68
2023/05/01 09:31:18;;;;;;;;;;;;;;;13.92;100.00;96487.84;5036376;28;19971;-70
2023/05/01 09:33:50;;;;;;;;;;;;;;;13.98;100.00;96492.97;5041227;28;19917;-69
2023/05/01 09:36:16;;;;;;;;;;;;;;;13.96;100.00;96488.63;5018805;28;20339;-69
2023/05/01 09:38:42;;;;;;;;;;;;;;;13.82;100.00;96490.63;5043853;28;19927;-69
2023/05/01 09:41:07;;;;;;;;;;;;;;;13.77;100.00;96487.09;5039004;28;19957;-68
2023/05/01 09:43:33;;;;;;;;;;;;;;;13.81;100.00;96489.03;5044514;28;20363;-68
2023/05/01 09:46:09;;;;;;;;;;;;;;;13.73;100.00;96486.28;5044284;28;20377;-68
2023/05/01 09:48:36;;;;;;;;;;;;;;;13.56;100.00;96493.34;5043969;28;19917;-68
2023/05/01 09:51:18;;;;;;;;;;;;;;;13.43;100.00;96483.09;5044799;28;19932;-69
2023/05/01 09:53:43;;;;;;;;;;;;;;;13.00;100.00;96490.03;5044522;28;19956;-69
2023/05/01 09:56:09;;;;;;;;;;;;;;;13.01;100.00;96486.09;5040033;28;19996;-69
2023/05/01 09:58:34;;;;;;;;;;;;;;;13.32;100.00;96486.59;5044262;28;20356;-68
2023/05/01 10:00:59;;;;;;;;;;;;;;;13.85;100.00;96487.84;5044764;28;19917;-69
2023/05/01 10:03:25;;;;;;;;;;;;;;;14.14;100.00;96491.38;5038606;28;20324;-69
2023/05/01 10:05:51;;;;;;;;;;;;;;;14.19;100.00;96490.22;5043306;28;19921;-69
2023/05/01 10:08:16;;;;;;;;;;;;;;;14.63;100.00;96491.69;5040788;28;20396;-68
2023/05/01 10:10:46;;;;;;;;;;;;;;;14.35;100.00;96484.28;5025661;28;20105;-68
2023/05/01 10:13:17;;;;;;;;;;;;;;;14.66;100.00;96481.88;5038634;28;20385;-70
2023/05/01 10:15:49;;;;;;;;;;;;;;;14.51;100.00;96479.13;5025521;28;19963;-69
2023/05/01 10:18:15;;;;;;;;;;;;;;;14.88;100.00;96483.34;5038915;28;19921;-70
2023/05/01 10:20:41;;;;;;;;;;;;;;;15.10;100.00;96483.25;5043768;28;19917;-68
2023/05/01 10:23:07;;;;;;;;;;;;;;;15.16;100.00;96487.19;5039216;28;19924;-68
2023/05/01 10:25:32;;;;;;;;;;;;;;;15.25;100.00;96490.28;5042991;28;20391;-67
2023/05/01 10:27:58;;;;;;;;;;;;;;;15.39;100.00;96483.09;5043205;28;19921;-68
2023/05/01 10:30:25;;;;;;;;;;;;;;;16.17;100.00;96484.50;5038784;28;19931;-67
2023/05/01 10:32:51;;;;;;;;;;;;;;;16.08;100.00;96483.41;5044270;28;19960;-66
2023/05/01 10:35:32;;;;;;;;;;;;;;;16.92;95.34;96485.72;5041599;28;19917;-67
2023/05/01 10:37:58;;;;;;;;;;;;;;;16.69;94.85;96486.38;5058248;28;19921;-68
2023/05/01 10:40:39;;;;;;;;;;;;;;;16.66;96.79;96484.41;5042816;28;19947;-68
2023/05/01 10:43:18;;;;;;;;;;;;;;;16.49;100.00;96477.09;5037295;28;20416;-69
2023/05/01 10:45:44;;;;;;;;;;;;;;;15.89;100.00;96484.75;5042103;28;20007;-68
2023/05/01 10:48:10;;;;;;;;;;;;;;;15.95;98.17;96483.13;5037614;28;19920;-67
2023/05/01 10:50:55;;;;;;;;;;;;;;;16.03;97.12;96481.88;5043250;28;20454;-67
2023/05/01 10:53:21;;;;;;;;;;;;;;;15.96;98.60;96476.41;5038782;28;20300;-66
2023/05/01 10:55:47;;;;;;;;;;;;;;;16.14;97.25;96479.81;5042154;28;19924;-66
2023/05/01 10:58:33;;;;;;;;;;;;;;;15.54;100.00;96476.31;5037756;28;20336;-65
2023/05/01 11:01:17;;;;;;;;;;;;;;;15.29;100.00;96477.25;5042949;28;20379;-66
2023/05/01 11:03:43;;;;;;;;;;;;;;;15.18;99.57;96472.97;5053862;28;19956;-66
2023/05/01 11:06:08;;;;;;;;;;;;;;;14.93;100.00;96468.38;5047288;28;20006;-66
2023/05/01 11:08:34;;;;;;;;;;;;;;;14.94;100.00;96472.69;5043893;28;20360;-67
2023/05/01 11:11:18;;;;;;;;;;;;;;;15.18;100.00;96471.00;5047563;28;19924;-68
2023/05/01 11:14:03;;;;;;;;;;;;;;;15.12;100.00;96469.84;5046126;28;19943;-67
2023/05/01 11:16:44;;;;;;;;;;;;;;;15.78;98.31;96463.53;5044295;28;19924;-68
2023/05/01 11:19:22;;;;;;;;;;;;;;;15.57;98.91;96461.69;5038934;28;19937;-67
2023/05/01 11:21:48;;;;;;;;;;;;;;;15.61;98.96;96461.66;5042997;28;19923;-68
2023/05/01 11:24:13;;;;;;;;;;;;;;;15.56;100.00;96465.66;5037685;28;19924;-67
2023/05/01 11:26:39;;;;;;;;;;;;;;;15.73;99.58;96455.66;5042309;28;19917;-67
2023/05/01 11:29:05;;;;;;;;;;;;;;;15.71;100.00;96460.78;5037831;28;19917;-68
2023/05/01 11:31:31;;;;;;;;;;;;;;;15.63;98.17;96457.31;5042448;28;19936;-67
2023/05/01 11:33:57;;;;;;;;;;;;;;;15.83;97.93;96454.81;5042996;28;19921;-67
2023/05/01 11:36:23;;;;;;;;;;;;;;;15.55;100.00;96455.00;5037692;28;20436;-66
2023/05/01 11:38:50;;;;;;;;;;;;;;;15.26;100.00;96455.97;5042197;28;19920;-67
2023/05/01 11:41:18;;;;;;;;;;;;;;;15.36;100.00;96456.31;5038540;28;19928;-66
2023/05/01 11:43:52;;;;;;;;;;;;;;;15.10;100.00;96452.91;5041934;28;19916;-67
2023/05/01 11:46:31;;;;;;;;;;;;;;;15.26;100.00;96446.91;5036116;28;19921;-67
2023/05/01 11:48:57;;;;;;;;;;;;;;;15.60;99.75;96451.81;5041688;28;19940;-66
2023/05/01 11:51:26;;;;;;;;;;;;;;;15.51;100.00;96446.75;5036498;28;20342;-67
2023/05/01 11:54:02;;;;;;;;;;;;;;;15.66;98.33;96456.50;5043038;28;20285;-67
2023/05/01 11:56:27;;;;;;;;;;;;;;;15.94;100.00;96451.97;5028686;28;19917;-65
2023/05/01 11:58:54;;;;;;;;;;;;;;;16.20;90.64;96458.03;5040484;28;19936;-67
2023/05/01 12:01:19;;;;;;;;;;;;;;;15.31;98.45;96459.50;5037307;28;19916;-67
2023/05/01 12:03:45;;;;;;;;;;;;;;;14.70;100.00;96457.81;5033075;28;19917;-67
2023/05/01 12:06:13;;;;;;;;;;;;;;;14.03;100.00;96456.78;5036658;28;19917;-67
2023/05/01 12:08:44;;;;;;;;;;;;;;;14.01;100.00;96467.38;5042424;28;20296;-67
2023/05/01 12:11:09;;;;;;;;;;;;;;;13.45;100.00;96469.72;5037788;28;19924;-67
2023/05/01 12:13:35;;;;;;;;;;;;;;;13.54;100.00;96468.19;5042478;28;20289;-66
2023/05/01 12:16:02;;;;;;;;;;;;;;;13.41;100.00;96468.94;5041916;28;20369;-66
2023/05/01 12:18:27;;;;;;;;;;;;;;;13.24;100.00;96465.75;5038518;28;19920;-67
2023/05/01 12:20:53;;;;;;;;;;;;;;;13.23;100.00;96468.88;5045458;28;20006;-67
2023/05/01 12:23:19;;;;;;;;;;;;;;;13.18;100.00;96461.78;5037297;28;19917;-66
2023/05/01 12:25:45;;;;;;;;;;;;;;;13.20;100.00;96465.75;5042015;28;20403;-66
2023/05/01 12:28:13;;;;;;;;;;;;;;;13.37;100.00;96464.22;5036785;28;19924;-66
2023/05/01 12:30:38;;;;;;;;;;;;;;;13.28;100.00;96463.00;5041688;28;19920;-65
2023/05/01 12:33:07;;;;;;;;;;;;;;;13.24;100.00;96460.25;5037541;28;19916;-67
2023/05/01 12:35:33;;;;;;;;;;;;;;;13.45;100.00;96465.03;5040001;28;19955;-66
2023/05/01 12:37:58;;;;;;;;;;;;;;;13.65;100.00;96468.19;5024732;28;20324;-66